sensor_id;sensor_type;location;lat;lon;timestamp;P1;durP1;ratioP1;P2;durP2;ratioP2
23088;SDS011;11713;48.506;8.966;2023-08-20T00:00:36;8.00;;;7.20;;
23088;SDS011;11713;48.506;8.966;2023-08-20T00:03:10;8.60;;;7.70;;
23088;SDS011;11713;48.506;8.966;2023-08-20T00:05:37;8.07;;;7.28;;
23088;SDS011;11713;48.506;8.966;2023-08-20T00:08:04;8.52;;;7.05;;
23088;SDS011;11713;48.506;8.966;2023-08-20T00:10:30;7.95;;;7.15;;
23088;SDS011;11713;48.506;8.966;2023-08-20T00:12:57;8.90;;;8.00;;
23088;SDS011;11713;48.506;8.966;2023-08-20T00:15:23;8.27;;;7.55;;
23088;SDS011;11713;48.506;8.966;2023-08-20T00:17:52;8.80;;;7.93;;
23088;SDS011;11713;48.506;8.966;2023-08-20T00:20:20;8.90;;;7.70;;
23088;SDS011;11713;48.506;8.966;2023-08-20T00:22:47;8.52;;;7.72;;
23088;SDS011;11713;48.506;8.966;2023-08-20T00:25:14;8.32;;;7.53;;
23088;SDS011;11713;48.506;8.966;2023-08-20T00:27:41;8.18;;;7.43;;
23088;SDS011;11713;48.506;8.966;2023-08-20T00:30:09;9.88;;;7.53;;
23088;SDS011;11713;48.506;8.966;2023-08-20T00:32:35;8.68;;;7.40;;
23088;SDS011;11713;48.506;8.966;2023-08-20T00:35:02;11.45;;;7.63;;
23088;SDS011;11713;48.506;8.966;2023-08-20T00:37:28;8.80;;;7.97;;
23088;SDS011;11713;48.506;8.966;2023-08-20T00:39:56;8.95;;;8.05;;
23088;SDS011;11713;48.506;8.966;2023-08-20T00:42:22;8.65;;;7.47;;
23088;SDS011;11713;48.506;8.966;2023-08-20T00:44:50;11.73;;;8.23;;
23088;SDS011;11713;48.506;8.966;2023-08-20T00:47:17;10.55;;;8.23;;
23088;SDS011;11713;48.506;8.966;2023-08-20T00:49:43;9.43;;;8.23;;
23088;SDS011;11713;48.506;8.966;2023-08-20T00:52:09;10.23;;;8.90;;
23088;SDS011;11713;48.506;8.966;2023-08-20T00:54:38;9.80;;;8.70;;
23088;SDS011;11713;48.506;8.966;2023-08-20T00:57:06;10.70;;;9.02;;
23088;SDS011;11713;48.506;8.966;2023-08-20T00:59:33;9.70;;;8.70;;
23088;SDS011;11713;48.506;8.966;2023-08-20T01:02:00;9.35;;;8.43;;
23088;SDS011;11713;48.506;8.966;2023-08-20T01:04:27;9.60;;;8.70;;
23088;SDS011;11713;48.506;8.966;2023-08-20T01:07:00;10.90;;;8.80;;
23088;SDS011;11713;48.506;8.966;2023-08-20T01:09:33;9.40;;;8.02;;
23088;SDS011;11713;48.506;8.966;2023-08-20T01:12:04;9.98;;;8.38;;
23088;SDS011;11713;48.506;8.966;2023-08-20T01:14:31;9.55;;;8.27;;
23088;SDS011;11713;48.506;8.966;2023-08-20T01:16:58;8.85;;;8.05;;
23088;SDS011;11713;48.506;8.966;2023-08-20T01:19:24;10.35;;;8.55;;
23088;SDS011;11713;48.506;8.966;2023-08-20T01:30:28;10.75;;;9.18;;
23088;SDS011;11713;48.506;8.966;2023-08-20T01:32:55;9.35;;;7.93;;
23088;SDS011;11713;48.506;8.966;2023-08-20T01:35:24;9.27;;;8.30;;
23088;SDS011;11713;48.506;8.966;2023-08-20T01:38:01;10.43;;;8.63;;
23088;SDS011;11713;48.506;8.966;2023-08-20T01:40:28;9.70;;;8.70;;
23088;SDS011;11713;48.506;8.966;2023-08-20T01:42:54;10.98;;;8.95;;
23088;SDS011;11713;48.506;8.966;2023-08-20T01:45:20;10.32;;;8.18;;
23088;SDS011;11713;48.506;8.966;2023-08-20T01:47:47;8.30;;;7.50;;
23088;SDS011;11713;48.506;8.966;2023-08-20T01:50:13;9.32;;;8.00;;
23088;SDS011;11713;48.506;8.966;2023-08-20T01:52:39;10.00;;;8.02;;
23088;SDS011;11713;48.506;8.966;2023-08-20T01:55:05;10.20;;;8.10;;
23088;SDS011;11713;48.506;8.966;2023-08-20T01:57:32;11.27;;;8.18;;
23088;SDS011;11713;48.506;8.966;2023-08-20T01:59:58;9.43;;;8.40;;
23088;SDS011;11713;48.506;8.966;2023-08-20T02:02:24;9.13;;;8.23;;
23088;SDS011;11713;48.506;8.966;2023-08-20T02:04:50;9.25;;;8.18;;
23088;SDS011;11713;48.506;8.966;2023-08-20T02:07:16;9.60;;;8.60;;
23088;SDS011;11713;48.506;8.966;2023-08-20T02:09:42;10.23;;;9.30;;
23088;SDS011;11713;48.506;8.966;2023-08-20T02:12:08;11.13;;;8.93;;
23088;SDS011;11713;48.506;8.966;2023-08-20T02:14:34;11.15;;;8.50;;
23088;SDS011;11713;48.506;8.966;2023-08-20T02:17:00;9.23;;;8.32;;
23088;SDS011;11713;48.506;8.966;2023-08-20T02:19:27;8.95;;;8.15;;
23088;SDS011;11713;48.506;8.966;2023-08-20T02:21:53;11.63;;;8.82;;
23088;SDS011;11713;48.506;8.966;2023-08-20T02:24:19;12.93;;;8.48;;
23088;SDS011;11713;48.506;8.966;2023-08-20T02:26:45;9.50;;;8.18;;
23088;SDS011;11713;48.506;8.966;2023-08-20T02:29:11;9.63;;;8.65;;
23088;SDS011;11713;48.506;8.966;2023-08-20T02:31:37;9.35;;;8.35;;
23088;SDS011;11713;48.506;8.966;2023-08-20T02:34:03;10.55;;;9.50;;
23088;SDS011;11713;48.506;8.966;2023-08-20T02:36:29;10.15;;;9.20;;
23088;SDS011;11713;48.506;8.966;2023-08-20T02:38:55;10.00;;;8.95;;
23088;SDS011;11713;48.506;8.966;2023-08-20T02:41:21;10.05;;;9.00;;
23088;SDS011;11713;48.506;8.966;2023-08-20T02:43:47;16.02;;;9.40;;
23088;SDS011;11713;48.506;8.966;2023-08-20T02:46:13;11.18;;;9.05;;
23088;SDS011;11713;48.506;8.966;2023-08-20T02:48:40;9.68;;;8.77;;
23088;SDS011;11713;48.506;8.966;2023-08-20T02:51:06;9.90;;;8.98;;
23088;SDS011;11713;48.506;8.966;2023-08-20T02:53:31;11.18;;;9.80;;
23088;SDS011;11713;48.506;8.966;2023-08-20T02:55:57;12.38;;;9.48;;
23088;SDS011;11713;48.506;8.966;2023-08-20T02:58:24;12.20;;;9.63;;
23088;SDS011;11713;48.506;8.966;2023-08-20T03:00:50;11.70;;;9.68;;
23088;SDS011;11713;48.506;8.966;2023-08-20T03:03:16;9.63;;;8.63;;
23088;SDS011;11713;48.506;8.966;2023-08-20T03:05:43;10.20;;;9.20;;
23088;SDS011;11713;48.506;8.966;2023-08-20T03:08:08;12.40;;;9.30;;
23088;SDS011;11713;48.506;8.966;2023-08-20T03:10:35;9.63;;;8.63;;
23088;SDS011;11713;48.506;8.966;2023-08-20T03:13:01;10.23;;;9.07;;
23088;SDS011;11713;48.506;8.966;2023-08-20T03:15:28;13.70;;;9.75;;
23088;SDS011;11713;48.506;8.966;2023-08-20T03:17:54;10.60;;;9.60;;
23088;SDS011;11713;48.506;8.966;2023-08-20T03:20:20;9.75;;;8.75;;
23088;SDS011;11713;48.506;8.966;2023-08-20T03:22:46;11.02;;;9.63;;
23088;SDS011;11713;48.506;8.966;2023-08-20T03:25:12;10.07;;;8.75;;
23088;SDS011;11713;48.506;8.966;2023-08-20T03:27:37;9.48;;;8.57;;
23088;SDS011;11713;48.506;8.966;2023-08-20T03:30:04;10.27;;;9.00;;
23088;SDS011;11713;48.506;8.966;2023-08-20T03:32:31;10.60;;;9.50;;
23088;SDS011;11713;48.506;8.966;2023-08-20T03:34:57;10.32;;;9.25;;
23088;SDS011;11713;48.506;8.966;2023-08-20T03:37:24;9.80;;;8.90;;
23088;SDS011;11713;48.506;8.966;2023-08-20T03:39:51;11.48;;;8.68;;
23088;SDS011;11713;48.506;8.966;2023-08-20T03:42:17;10.68;;;8.75;;
23088;SDS011;11713;48.506;8.966;2023-08-20T03:44:43;9.48;;;8.57;;
23088;SDS011;11713;48.506;8.966;2023-08-20T03:47:09;10.55;;;9.45;;
23088;SDS011;11713;48.506;8.966;2023-08-20T03:49:35;10.55;;;9.45;;
23088;SDS011;11713;48.506;8.966;2023-08-20T03:52:01;12.93;;;9.90;;
23088;SDS011;11713;48.506;8.966;2023-08-20T03:54:28;11.23;;;9.27;;
23088;SDS011;11713;48.506;8.966;2023-08-20T03:56:55;9.88;;;8.88;;
23088;SDS011;11713;48.506;8.966;2023-08-20T03:59:22;12.75;;;9.70;;
23088;SDS011;11713;48.506;8.966;2023-08-20T04:01:48;10.00;;;9.10;;
23088;SDS011;11713;48.506;8.966;2023-08-20T04:04:14;10.73;;;9.73;;
23088;SDS011;11713;48.506;8.966;2023-08-20T04:06:40;12.00;;;10.02;;
23088;SDS011;11713;48.506;8.966;2023-08-20T04:09:06;16.30;;;9.57;;
23088;SDS011;11713;48.506;8.966;2023-08-20T04:11:34;14.43;;;9.55;;
23088;SDS011;11713;48.506;8.966;2023-08-20T04:14:00;10.23;;;9.13;;
23088;SDS011;11713;48.506;8.966;2023-08-20T04:16:28;10.88;;;9.05;;
23088;SDS011;11713;48.506;8.966;2023-08-20T04:18:54;10.40;;;9.35;;
23088;SDS011;11713;48.506;8.966;2023-08-20T04:21:21;13.85;;;9.23;;
23088;SDS011;11713;48.506;8.966;2023-08-20T04:23:48;10.45;;;9.43;;
23088;SDS011;11713;48.506;8.966;2023-08-20T04:26:14;11.15;;;10.00;;
23088;SDS011;11713;48.506;8.966;2023-08-20T04:28:40;10.75;;;9.00;;
23088;SDS011;11713;48.506;8.966;2023-08-20T04:31:06;9.73;;;8.77;;
23088;SDS011;11713;48.506;8.966;2023-08-20T04:33:46;10.20;;;9.20;;
23088;SDS011;11713;48.506;8.966;2023-08-20T04:36:15;11.95;;;9.70;;
23088;SDS011;11713;48.506;8.966;2023-08-20T04:38:41;9.73;;;8.80;;
23088;SDS011;11713;48.506;8.966;2023-08-20T04:41:07;10.18;;;9.07;;
23088;SDS011;11713;48.506;8.966;2023-08-20T04:43:33;9.63;;;8.57;;
23088;SDS011;11713;48.506;8.966;2023-08-20T04:46:00;10.73;;;9.38;;
23088;SDS011;11713;48.506;8.966;2023-08-20T04:48:28;12.02;;;9.50;;
23088;SDS011;11713;48.506;8.966;2023-08-20T04:50:54;11.98;;;9.73;;
23088;SDS011;11713;48.506;8.966;2023-08-20T04:53:21;10.48;;;9.48;;
23088;SDS011;11713;48.506;8.966;2023-08-20T04:55:47;12.57;;;9.68;;
23088;SDS011;11713;48.506;8.966;2023-08-20T04:58:13;12.07;;;10.85;;
23088;SDS011;11713;48.506;8.966;2023-08-20T05:00:39;11.45;;;10.27;;
23088;SDS011;11713;48.506;8.966;2023-08-20T05:03:09;13.63;;;10.90;;
23088;SDS011;11713;48.506;8.966;2023-08-20T05:05:34;10.55;;;9.45;;
23088;SDS011;11713;48.506;8.966;2023-08-20T05:08:00;11.57;;;10.48;;
23088;SDS011;11713;48.506;8.966;2023-08-20T05:10:26;11.60;;;10.50;;
23088;SDS011;11713;48.506;8.966;2023-08-20T05:12:52;11.65;;;9.35;;
23088;SDS011;11713;48.506;8.966;2023-08-20T05:15:18;11.35;;;10.25;;
23088;SDS011;11713;48.506;8.966;2023-08-20T05:17:44;11.10;;;9.82;;
23088;SDS011;11713;48.506;8.966;2023-08-20T05:20:10;11.05;;;10.05;;
23088;SDS011;11713;48.506;8.966;2023-08-20T05:22:36;10.93;;;9.90;;
23088;SDS011;11713;48.506;8.966;2023-08-20T05:25:02;11.27;;;9.77;;
23088;SDS011;11713;48.506;8.966;2023-08-20T05:27:30;11.05;;;9.95;;
23088;SDS011;11713;48.506;8.966;2023-08-20T05:29:57;12.48;;;10.10;;
23088;SDS011;11713;48.506;8.966;2023-08-20T05:32:22;11.95;;;10.05;;
23088;SDS011;11713;48.506;8.966;2023-08-20T05:34:48;10.63;;;9.63;;
23088;SDS011;11713;48.506;8.966;2023-08-20T05:37:14;11.30;;;10.10;;
23088;SDS011;11713;48.506;8.966;2023-08-20T05:39:41;10.93;;;9.82;;
23088;SDS011;11713;48.506;8.966;2023-08-20T05:42:08;15.73;;;10.35;;
23088;SDS011;11713;48.506;8.966;2023-08-20T05:44:35;11.35;;;10.20;;
23088;SDS011;11713;48.506;8.966;2023-08-20T05:47:02;11.55;;;10.07;;
23088;SDS011;11713;48.506;8.966;2023-08-20T05:49:30;10.88;;;9.82;;
23088;SDS011;11713;48.506;8.966;2023-08-20T05:51:56;11.65;;;9.95;;
23088;SDS011;11713;48.506;8.966;2023-08-20T05:54:21;11.48;;;10.35;;
23088;SDS011;11713;48.506;8.966;2023-08-20T05:56:51;11.13;;;9.25;;
23088;SDS011;11713;48.506;8.966;2023-08-20T05:59:16;10.82;;;9.82;;
23088;SDS011;11713;48.506;8.966;2023-08-20T06:01:42;11.20;;;10.00;;
23088;SDS011;11713;48.506;8.966;2023-08-20T06:04:08;13.25;;;10.20;;
23088;SDS011;11713;48.506;8.966;2023-08-20T06:06:34;12.32;;;10.23;;
23088;SDS011;11713;48.506;8.966;2023-08-20T06:09:01;10.13;;;9.23;;
23088;SDS011;11713;48.506;8.966;2023-08-20T06:11:26;10.45;;;9.43;;
23088;SDS011;11713;48.506;8.966;2023-08-20T06:13:52;11.40;;;10.27;;
23088;SDS011;11713;48.506;8.966;2023-08-20T06:16:18;10.55;;;9.50;;
23088;SDS011;11713;48.506;8.966;2023-08-20T06:18:44;10.95;;;9.88;;
23088;SDS011;11713;48.506;8.966;2023-08-20T06:21:09;12.38;;;10.07;;
23088;SDS011;11713;48.506;8.966;2023-08-20T06:23:35;11.70;;;9.60;;
23088;SDS011;11713;48.506;8.966;2023-08-20T06:26:01;10.63;;;9.70;;
23088;SDS011;11713;48.506;8.966;2023-08-20T06:28:27;12.60;;;9.80;;
23088;SDS011;11713;48.506;8.966;2023-08-20T06:30:53;10.30;;;9.27;;
23088;SDS011;11713;48.506;8.966;2023-08-20T06:33:19;10.45;;;9.43;;
23088;SDS011;11713;48.506;8.966;2023-08-20T06:35:45;10.68;;;9.77;;
23088;SDS011;11713;48.506;8.966;2023-08-20T06:38:10;10.38;;;9.38;;
23088;SDS011;11713;48.506;8.966;2023-08-20T06:40:36;10.48;;;9.48;;
23088;SDS011;11713;48.506;8.966;2023-08-20T06:43:02;10.20;;;9.20;;
23088;SDS011;11713;48.506;8.966;2023-08-20T06:45:29;10.35;;;9.35;;
23088;SDS011;11713;48.506;8.966;2023-08-20T06:47:56;10.57;;;9.57;;
23088;SDS011;11713;48.506;8.966;2023-08-20T06:50:23;11.77;;;10.10;;
23088;SDS011;11713;48.506;8.966;2023-08-20T06:52:49;10.57;;;9.40;;
23088;SDS011;11713;48.506;8.966;2023-08-20T06:55:14;11.20;;;8.98;;
23088;SDS011;11713;48.506;8.966;2023-08-20T06:57:40;10.18;;;9.23;;
23088;SDS011;11713;48.506;8.966;2023-08-20T07:00:06;10.95;;;9.75;;
23088;SDS011;11713;48.506;8.966;2023-08-20T07:02:32;10.05;;;8.85;;
23088;SDS011;11713;48.506;8.966;2023-08-20T07:04:58;10.38;;;9.38;;
23088;SDS011;11713;48.506;8.966;2023-08-20T07:07:24;10.20;;;9.10;;
23088;SDS011;11713;48.506;8.966;2023-08-20T07:09:49;11.15;;;10.00;;
23088;SDS011;11713;48.506;8.966;2023-08-20T07:12:15;10.77;;;9.63;;
23088;SDS011;11713;48.506;8.966;2023-08-20T07:14:41;10.15;;;9.13;;
23088;SDS011;11713;48.506;8.966;2023-08-20T07:17:07;10.50;;;9.40;;
23088;SDS011;11713;48.506;8.966;2023-08-20T07:19:33;11.90;;;9.45;;
23088;SDS011;11713;48.506;8.966;2023-08-20T07:21:59;10.98;;;9.50;;
23088;SDS011;11713;48.506;8.966;2023-08-20T07:24:24;9.75;;;8.75;;
23088;SDS011;11713;48.506;8.966;2023-08-20T07:26:53;10.52;;;9.43;;
23088;SDS011;11713;48.506;8.966;2023-08-20T07:29:24;11.02;;;9.70;;
23088;SDS011;11713;48.506;8.966;2023-08-20T07:31:51;9.57;;;8.75;;
23088;SDS011;11713;48.506;8.966;2023-08-20T07:34:16;9.73;;;8.77;;
23088;SDS011;11713;48.506;8.966;2023-08-20T07:36:42;9.40;;;8.25;;
23088;SDS011;11713;48.506;8.966;2023-08-20T07:39:08;9.68;;;8.68;;
23088;SDS011;11713;48.506;8.966;2023-08-20T07:41:34;12.15;;;9.52;;
23088;SDS011;11713;48.506;8.966;2023-08-20T07:44:00;11.02;;;9.82;;
23088;SDS011;11713;48.506;8.966;2023-08-20T07:46:26;10.88;;;9.38;;
23088;SDS011;11713;48.506;8.966;2023-08-20T07:48:52;11.40;;;9.07;;
23088;SDS011;11713;48.506;8.966;2023-08-20T07:51:17;10.52;;;9.32;;
23088;SDS011;11713;48.506;8.966;2023-08-20T07:53:43;11.63;;;9.25;;
23088;SDS011;11713;48.506;8.966;2023-08-20T07:56:09;12.93;;;9.38;;
23088;SDS011;11713;48.506;8.966;2023-08-20T07:58:35;11.60;;;10.15;;
23088;SDS011;11713;48.506;8.966;2023-08-20T08:01:00;10.68;;;9.57;;
23088;SDS011;11713;48.506;8.966;2023-08-20T08:03:26;10.65;;;9.65;;
23088;SDS011;11713;48.506;8.966;2023-08-20T08:05:52;10.13;;;9.23;;
23088;SDS011;11713;48.506;8.966;2023-08-20T08:08:19;10.88;;;9.77;;
23088;SDS011;11713;48.506;8.966;2023-08-20T08:10:45;11.20;;;10.15;;
23088;SDS011;11713;48.506;8.966;2023-08-20T08:13:12;10.55;;;9.32;;
23088;SDS011;11713;48.506;8.966;2023-08-20T08:15:39;10.45;;;9.40;;
23088;SDS011;11713;48.506;8.966;2023-08-20T08:18:04;11.15;;;9.55;;
23088;SDS011;11713;48.506;8.966;2023-08-20T08:20:31;11.45;;;9.27;;
23088;SDS011;11713;48.506;8.966;2023-08-20T08:22:57;12.82;;;9.52;;
23088;SDS011;11713;48.506;8.966;2023-08-20T08:25:22;10.93;;;9.93;;
23088;SDS011;11713;48.506;8.966;2023-08-20T08:27:48;11.95;;;9.63;;
23088;SDS011;11713;48.506;8.966;2023-08-20T08:30:14;10.57;;;9.55;;
23088;SDS011;11713;48.506;8.966;2023-08-20T08:32:44;10.02;;;9.10;;
23088;SDS011;11713;48.506;8.966;2023-08-20T08:35:09;10.23;;;8.95;;
23088;SDS011;11713;48.506;8.966;2023-08-20T08:37:35;10.48;;;9.57;;
23088;SDS011;11713;48.506;8.966;2023-08-20T08:40:02;10.43;;;9.13;;
23088;SDS011;11713;48.506;8.966;2023-08-20T08:42:31;10.07;;;9.07;;
23088;SDS011;11713;48.506;8.966;2023-08-20T08:44:59;10.35;;;9.40;;
23088;SDS011;11713;48.506;8.966;2023-08-20T08:47:25;10.15;;;8.95;;
23088;SDS011;11713;48.506;8.966;2023-08-20T08:49:51;10.13;;;9.10;;
23088;SDS011;11713;48.506;8.966;2023-08-20T08:52:19;10.25;;;9.32;;
23088;SDS011;11713;48.506;8.966;2023-08-20T08:54:47;9.30;;;8.50;;
23088;SDS011;11713;48.506;8.966;2023-08-20T08:57:14;11.85;;;9.23;;
23088;SDS011;11713;48.506;8.966;2023-08-20T08:59:44;10.52;;;9.52;;
23088;SDS011;11713;48.506;8.966;2023-08-20T09:02:11;9.45;;;8.60;;
23088;SDS011;11713;48.506;8.966;2023-08-20T09:04:41;9.27;;;8.50;;
23088;SDS011;11713;48.506;8.966;2023-08-20T09:07:14;10.18;;;9.13;;
23088;SDS011;11713;48.506;8.966;2023-08-20T09:09:44;9.55;;;8.70;;
23088;SDS011;11713;48.506;8.966;2023-08-20T09:12:14;9.93;;;8.90;;
23088;SDS011;11713;48.506;8.966;2023-08-20T09:14:50;11.55;;;9.18;;
23088;SDS011;11713;48.506;8.966;2023-08-20T09:17:17;9.63;;;8.73;;
23088;SDS011;11713;48.506;8.966;2023-08-20T09:19:44;10.13;;;8.75;;
23088;SDS011;11713;48.506;8.966;2023-08-20T09:22:11;9.27;;;8.38;;
23088;SDS011;11713;48.506;8.966;2023-08-20T09:27:13;10.45;;;8.63;;
23088;SDS011;11713;48.506;8.966;2023-08-20T09:32:18;9.20;;;8.40;;
23088;SDS011;11713;48.506;8.966;2023-08-20T09:34:48;12.32;;;9.00;;
23088;SDS011;11713;48.506;8.966;2023-08-20T09:37:15;10.13;;;9.13;;
23088;SDS011;11713;48.506;8.966;2023-08-20T09:39:44;11.52;;;9.80;;
23088;SDS011;11713;48.506;8.966;2023-08-20T09:42:11;9.45;;;8.48;;
23088;SDS011;11713;48.506;8.966;2023-08-20T09:44:41;12.60;;;8.25;;
23088;SDS011;11713;48.506;8.966;2023-08-20T09:49:38;10.18;;;8.68;;
23088;SDS011;11713;48.506;8.966;2023-08-20T09:52:11;10.15;;;9.15;;
23088;SDS011;11713;48.506;8.966;2023-08-20T09:54:52;11.23;;;8.57;;
23088;SDS011;11713;48.506;8.966;2023-08-20T09:57:40;10.25;;;8.75;;
23088;SDS011;11713;48.506;8.966;2023-08-20T10:00:07;9.15;;;8.20;;
23088;SDS011;11713;48.506;8.966;2023-08-20T10:02:40;9.10;;;8.25;;
23088;SDS011;11713;48.506;8.966;2023-08-20T10:05:07;11.20;;;9.13;;
23088;SDS011;11713;48.506;8.966;2023-08-20T10:07:37;9.20;;;8.40;;
23088;SDS011;11713;48.506;8.966;2023-08-20T10:10:04;8.95;;;8.00;;
23088;SDS011;11713;48.506;8.966;2023-08-20T10:12:32;10.15;;;8.73;;
23088;SDS011;11713;48.506;8.966;2023-08-20T10:14:58;9.13;;;8.32;;
23088;SDS011;11713;48.506;8.966;2023-08-20T10:17:25;10.48;;;8.60;;
23088;SDS011;11713;48.506;8.966;2023-08-20T10:19:54;10.15;;;9.00;;
23088;SDS011;11713;48.506;8.966;2023-08-20T10:22:31;10.48;;;8.60;;
23088;SDS011;11713;48.506;8.966;2023-08-20T10:25:03;9.32;;;8.52;;
23088;SDS011;11713;48.506;8.966;2023-08-20T10:27:35;9.45;;;8.65;;
23088;SDS011;11713;48.506;8.966;2023-08-20T10:30:20;10.00;;;8.32;;
23088;SDS011;11713;48.506;8.966;2023-08-20T10:32:51;9.48;;;8.43;;
23088;SDS011;11713;48.506;8.966;2023-08-20T10:35:19;10.73;;;8.07;;
23088;SDS011;11713;48.506;8.966;2023-08-20T10:40:48;9.13;;;8.10;;
23088;SDS011;11713;48.506;8.966;2023-08-20T10:46:25;11.02;;;8.80;;
23088;SDS011;11713;48.506;8.966;2023-08-20T10:49:01;9.40;;;8.45;;
23088;SDS011;11713;48.506;8.966;2023-08-20T10:51:29;10.02;;;8.27;;
23088;SDS011;11713;48.506;8.966;2023-08-20T10:59:09;8.68;;;7.78;;
23088;SDS011;11713;48.506;8.966;2023-08-20T11:01:45;8.70;;;7.80;;
23088;SDS011;11713;48.506;8.966;2023-08-20T11:04:12;8.80;;;8.00;;
23088;SDS011;11713;48.506;8.966;2023-08-20T11:06:40;11.02;;;7.93;;
23088;SDS011;11713;48.506;8.966;2023-08-20T11:09:07;7.85;;;7.05;;
23088;SDS011;11713;48.506;8.966;2023-08-20T11:11:33;8.68;;;7.47;;
23088;SDS011;11713;48.506;8.966;2023-08-20T11:14:06;8.73;;;7.90;;
23088;SDS011;11713;48.506;8.966;2023-08-20T11:16:34;8.52;;;7.82;;
23088;SDS011;11713;48.506;8.966;2023-08-20T11:19:00;8.85;;;7.20;;
23088;SDS011;11713;48.506;8.966;2023-08-20T11:21:27;9.02;;;7.20;;
23088;SDS011;11713;48.506;8.966;2023-08-20T11:23:54;9.13;;;7.40;;
23088;SDS011;11713;48.506;8.966;2023-08-20T11:26:20;10.73;;;7.40;;
23088;SDS011;11713;48.506;8.966;2023-08-20T11:28:46;7.60;;;7.00;;
23088;SDS011;11713;48.506;8.966;2023-08-20T11:31:12;8.25;;;7.45;;
23088;SDS011;11713;48.506;8.966;2023-08-20T11:33:38;10.23;;;7.70;;
23088;SDS011;11713;48.506;8.966;2023-08-20T11:36:05;9.23;;;7.40;;
23088;SDS011;11713;48.506;8.966;2023-08-20T11:38:31;8.60;;;7.80;;
23088;SDS011;11713;48.506;8.966;2023-08-20T11:41:00;8.35;;;7.55;;
23088;SDS011;11713;48.506;8.966;2023-08-20T11:43:29;8.93;;;7.65;;
23088;SDS011;11713;48.506;8.966;2023-08-20T11:45:55;7.80;;;6.97;;
23088;SDS011;11713;48.506;8.966;2023-08-20T11:48:21;7.88;;;7.07;;
23088;SDS011;11713;48.506;8.966;2023-08-20T11:50:48;13.20;;;7.38;;
23088;SDS011;11713;48.506;8.966;2023-08-20T11:53:15;8.02;;;6.60;;
23088;SDS011;11713;48.506;8.966;2023-08-20T11:55:49;9.57;;;6.85;;
23088;SDS011;11713;48.506;8.966;2023-08-20T11:58:15;7.63;;;6.93;;
23088;SDS011;11713;48.506;8.966;2023-08-20T12:00:43;7.40;;;6.53;;
23088;SDS011;11713;48.506;8.966;2023-08-20T12:03:15;9.20;;;6.70;;
23088;SDS011;11713;48.506;8.966;2023-08-20T12:05:43;7.32;;;6.63;;
23088;SDS011;11713;48.506;8.966;2023-08-20T12:08:09;7.55;;;6.75;;
23088;SDS011;11713;48.506;8.966;2023-08-20T12:10:42;9.13;;;6.78;;
23088;SDS011;11713;48.506;8.966;2023-08-20T12:13:08;11.00;;;6.97;;
23088;SDS011;11713;48.506;8.966;2023-08-20T12:15:34;10.52;;;6.95;;
23088;SDS011;11713;48.506;8.966;2023-08-20T12:18:03;8.38;;;6.90;;
23088;SDS011;11713;48.506;8.966;2023-08-20T12:20:31;7.47;;;6.60;;
23088;SDS011;11713;48.506;8.966;2023-08-20T12:22:59;6.78;;;6.18;;
23088;SDS011;11713;48.506;8.966;2023-08-20T12:25:26;6.88;;;6.18;;
23088;SDS011;11713;48.506;8.966;2023-08-20T12:27:52;7.20;;;6.45;;
23088;SDS011;11713;48.506;8.966;2023-08-20T12:30:18;7.72;;;6.93;;
23088;SDS011;11713;48.506;8.966;2023-08-20T12:32:44;8.15;;;6.97;;
23088;SDS011;11713;48.506;8.966;2023-08-20T12:35:09;7.55;;;6.70;;
23088;SDS011;11713;48.506;8.966;2023-08-20T12:37:35;7.90;;;6.97;;
23088;SDS011;11713;48.506;8.966;2023-08-20T12:40:01;8.35;;;7.05;;
23088;SDS011;11713;48.506;8.966;2023-08-20T12:42:29;7.28;;;6.28;;
23088;SDS011;11713;48.506;8.966;2023-08-20T12:44:54;7.10;;;6.43;;
23088;SDS011;11713;48.506;8.966;2023-08-20T12:47:20;6.43;;;5.63;;
23088;SDS011;11713;48.506;8.966;2023-08-20T12:49:46;7.63;;;6.50;;
23088;SDS011;11713;48.506;8.966;2023-08-20T12:52:12;8.45;;;6.82;;
23088;SDS011;11713;48.506;8.966;2023-08-20T12:54:38;7.72;;;6.35;;
23088;SDS011;11713;48.506;8.966;2023-08-20T12:57:03;8.02;;;6.75;;
23088;SDS011;11713;48.506;8.966;2023-08-20T12:59:29;7.85;;;6.13;;
23088;SDS011;11713;48.506;8.966;2023-08-20T13:01:55;9.60;;;6.20;;
23088;SDS011;11713;48.506;8.966;2023-08-20T13:04:21;7.85;;;6.63;;
23088;SDS011;11713;48.506;8.966;2023-08-20T13:06:47;6.88;;;6.15;;
23088;SDS011;11713;48.506;8.966;2023-08-20T13:09:13;7.32;;;6.43;;
23088;SDS011;11713;48.506;8.966;2023-08-20T13:11:40;7.65;;;6.28;;
23088;SDS011;11713;48.506;8.966;2023-08-20T13:14:08;9.75;;;6.60;;
23088;SDS011;11713;48.506;8.966;2023-08-20T13:16:34;9.32;;;6.32;;
23088;SDS011;11713;48.506;8.966;2023-08-20T13:19:00;7.25;;;6.05;;
23088;SDS011;11713;48.506;8.966;2023-08-20T13:21:26;7.28;;;6.13;;
23088;SDS011;11713;48.506;8.966;2023-08-20T13:23:51;7.90;;;6.22;;
23088;SDS011;11713;48.506;8.966;2023-08-20T13:26:17;8.27;;;6.18;;
23088;SDS011;11713;48.506;8.966;2023-08-20T13:28:43;6.57;;;5.90;;
23088;SDS011;11713;48.506;8.966;2023-08-20T13:31:09;8.52;;;5.82;;
23088;SDS011;11713;48.506;8.966;2023-08-20T13:33:34;7.25;;;5.97;;
23088;SDS011;11713;48.506;8.966;2023-08-20T13:36:00;9.82;;;6.25;;
23088;SDS011;11713;48.506;8.966;2023-08-20T13:38:26;7.10;;;5.68;;
23088;SDS011;11713;48.506;8.966;2023-08-20T13:40:52;8.48;;;5.97;;
23088;SDS011;11713;48.506;8.966;2023-08-20T13:43:19;8.82;;;6.07;;
23088;SDS011;11713;48.506;8.966;2023-08-20T13:45:44;10.48;;;5.97;;
23088;SDS011;11713;48.506;8.966;2023-08-20T13:48:10;8.10;;;6.15;;
23088;SDS011;11713;48.506;8.966;2023-08-20T13:50:36;9.35;;;6.60;;
23088;SDS011;11713;48.506;8.966;2023-08-20T13:53:02;7.05;;;6.28;;
23088;SDS011;11713;48.506;8.966;2023-08-20T13:55:27;6.60;;;5.80;;
23088;SDS011;11713;48.506;8.966;2023-08-20T13:57:56;13.00;;;6.15;;
23088;SDS011;11713;48.506;8.966;2023-08-20T14:00:22;7.43;;;5.72;;
23088;SDS011;11713;48.506;8.966;2023-08-20T14:02:47;7.85;;;6.07;;
23088;SDS011;11713;48.506;8.966;2023-08-20T14:05:13;6.32;;;5.13;;
23088;SDS011;11713;48.506;8.966;2023-08-20T14:07:39;7.30;;;5.82;;
23088;SDS011;11713;48.506;8.966;2023-08-20T14:10:07;9.75;;;6.80;;
23088;SDS011;11713;48.506;8.966;2023-08-20T14:12:33;7.97;;;6.00;;
23088;SDS011;11713;48.506;8.966;2023-08-20T14:14:59;7.05;;;6.07;;
23088;SDS011;11713;48.506;8.966;2023-08-20T14:17:25;8.02;;;5.80;;
23088;SDS011;11713;48.506;8.966;2023-08-20T14:19:52;7.07;;;6.40;;
23088;SDS011;11713;48.506;8.966;2023-08-20T14:22:18;7.20;;;5.95;;
23088;SDS011;11713;48.506;8.966;2023-08-20T14:24:44;7.18;;;5.72;;
23088;SDS011;11713;48.506;8.966;2023-08-20T14:27:10;6.40;;;5.90;;
23088;SDS011;11713;48.506;8.966;2023-08-20T14:29:41;8.30;;;6.10;;
23088;SDS011;11713;48.506;8.966;2023-08-20T14:32:07;9.43;;;6.90;;
23088;SDS011;11713;48.506;8.966;2023-08-20T14:34:33;10.20;;;7.18;;
23088;SDS011;11713;48.506;8.966;2023-08-20T14:36:59;11.13;;;7.55;;
23088;SDS011;11713;48.506;8.966;2023-08-20T14:39:24;7.85;;;7.10;;
23088;SDS011;11713;48.506;8.966;2023-08-20T14:41:50;9.93;;;6.93;;
23088;SDS011;11713;48.506;8.966;2023-08-20T14:44:16;8.80;;;7.40;;
23088;SDS011;11713;48.506;8.966;2023-08-20T14:46:42;7.70;;;6.70;;
23088;SDS011;11713;48.506;8.966;2023-08-20T14:49:08;7.88;;;6.90;;
23088;SDS011;11713;48.506;8.966;2023-08-20T14:51:34;7.35;;;6.57;;
23088;SDS011;11713;48.506;8.966;2023-08-20T14:54:00;10.50;;;6.82;;
23088;SDS011;11713;48.506;8.966;2023-08-20T14:56:26;9.60;;;7.10;;
23088;SDS011;11713;48.506;8.966;2023-08-20T14:58:51;8.82;;;6.57;;
23088;SDS011;11713;48.506;8.966;2023-08-20T15:01:17;7.32;;;6.63;;
23088;SDS011;11713;48.506;8.966;2023-08-20T15:03:43;7.57;;;6.15;;
23088;SDS011;11713;48.506;8.966;2023-08-20T15:06:09;10.52;;;7.25;;